createdAt,value
2019-04-28T00:02:05.368Z,71.62
2019-04-28T00:04:55.244Z,71.63
2019-04-28T00:07:45.264Z,71.72
2019-04-28T00:10:34.994Z,71.76
2019-04-28T00:13:24.731Z,71.71
2019-04-28T00:16:16.029Z,71.70
2019-04-28T00:19:05.591Z,71.65
2019-04-28T00:22:01.601Z,71.66
2019-04-28T00:25:01.903Z,71.78
2019-04-28T00:27:51.650Z,71.80
2019-04-28T00:30:41.937Z,71.76
2019-04-28T00:33:32.022Z,71.66
2019-04-28T00:36:22.023Z,71.68
2019-04-28T00:39:12.534Z,71.71
2019-04-28T00:42:03.340Z,71.63
2019-04-28T00:44:53.793Z,71.63
2019-04-28T00:47:43.729Z,71.56
2019-04-28T00:50:34.015Z,71.59
2019-04-28T00:53:23.755Z,71.68
2019-04-28T00:56:13.560Z,71.56
2019-04-28T00:59:04.000Z,71.57
2019-04-28T01:02:01.115Z,71.59
2019-04-28T01:04:51.509Z,71.43
2019-04-28T01:07:41.623Z,71.73
2019-04-28T01:10:32.236Z,71.68
2019-04-28T01:13:23.891Z,71.66
2019-04-28T01:16:21.609Z,71.60
2019-04-28T01:19:17.150Z,71.48
2019-04-28T01:22:11.504Z,71.40
2019-04-28T01:25:01.661Z,71.38
2019-04-28T01:27:55.441Z,71.31
2019-04-28T01:31:09.563Z,71.28
2019-04-28T01:34:19.850Z,71.24
2019-04-28T01:37:09.759Z,71.28
2019-04-28T01:40:00.018Z,71.31
2019-04-28T01:42:50.057Z,71.35
2019-04-28T01:45:41.623Z,71.39
2019-04-28T01:48:31.971Z,71.31
2019-04-28T01:51:21.789Z,71.36
2019-04-28T01:54:11.886Z,71.29
2019-04-28T01:57:02.351Z,71.35
2019-04-28T01:59:53.257Z,71.37
2019-04-28T02:02:42.957Z,71.39
2019-04-28T02:05:33.205Z,71.46
2019-04-28T02:08:22.991Z,71.49
2019-04-28T02:11:12.886Z,71.38
2019-04-28T02:14:02.892Z,71.31
2019-04-28T02:16:52.919Z,71.38
2019-04-28T02:19:42.487Z,71.29
2019-04-28T02:22:37.684Z,71.34
2019-04-28T02:25:27.694Z,71.29
2019-04-28T02:28:19.697Z,71.05
2019-04-28T02:31:11.524Z,71.06
2019-04-28T02:34:01.189Z,71.07
2019-04-28T02:36:54.012Z,71.08
2019-04-28T02:39:43.217Z,71.04
2019-04-28T02:42:32.894Z,71.07
2019-04-28T02:45:23.974Z,71.12
2019-04-28T02:48:21.146Z,71.20
2019-04-28T02:51:21.293Z,71.19
2019-04-28T02:54:11.425Z,71.19
2019-04-28T02:57:01.754Z,71.16
2019-04-28T02:59:51.398Z,71.20
2019-04-28T03:02:41.835Z,71.24
2019-04-28T03:05:33.525Z,71.17
2019-04-28T03:08:23.301Z,71.13
2019-04-28T03:11:13.480Z,71.17
2019-04-28T03:14:03.677Z,71.21
2019-04-28T03:16:53.687Z,71.22
2019-04-28T03:19:44.599Z,71.19
2019-04-28T03:22:34.634Z,71.19
2019-04-28T03:25:43.737Z,71.22
2019-04-28T03:28:47.320Z,71.25
2019-04-28T03:32:16.080Z,71.29
2019-04-28T03:34:47.188Z,71.30
2019-04-28T03:37:37.543Z,71.39
2019-04-28T03:40:27.682Z,71.36
2019-04-28T03:43:17.334Z,71.41
2019-04-28T03:46:12.861Z,71.36
2019-04-28T03:49:02.685Z,71.36
2019-04-28T03:51:52.881Z,71.27
2019-04-28T03:54:42.799Z,71.27
2019-04-28T03:57:32.751Z,71.25
2019-04-28T04:00:22.783Z,71.29
2019-04-28T04:03:12.622Z,71.36
2019-04-28T04:06:02.516Z,71.44
2019-04-28T04:08:52.408Z,71.38
2019-04-28T04:11:46.555Z,71.37
2019-04-28T04:14:55.204Z,71.30
2019-04-28T04:18:21.048Z,71.30
2019-04-28T04:21:12.216Z,71.33
2019-04-28T04:24:02.246Z,71.37
2019-04-28T04:26:53.377Z,71.41
2019-04-28T04:29:43.833Z,71.38
2019-04-28T04:32:33.882Z,71.23
2019-04-28T04:35:23.940Z,71.22
2019-04-28T04:38:14.165Z,71.21
2019-04-28T04:41:04.517Z,71.15
2019-04-28T04:43:54.569Z,71.23
2019-04-28T04:46:44.381Z,71.35
2019-04-28T04:49:34.699Z,71.29
2019-04-28T04:52:24.762Z,71.27
2019-04-28T04:55:15.544Z,71.28
2019-04-28T04:58:05.897Z,71.21
2019-04-28T05:01:05.653Z,71.10
2019-04-28T05:03:57.326Z,71.10
2019-04-28T05:06:47.267Z,71.12
2019-04-28T05:09:39.529Z,71.15
2019-04-28T05:12:30.638Z,71.17
2019-04-28T05:15:20.440Z,71.01
2019-04-28T05:18:10.751Z,71.04
2019-04-28T05:21:00.509Z,70.97
2019-04-28T05:24:15.822Z,71.07
2019-04-28T05:27:06.352Z,71.14
2019-04-28T05:29:56.763Z,71.10
2019-04-28T05:32:53.694Z,71.14
2019-04-28T05:35:39.730Z,71.01
2019-04-28T05:38:30.391Z,71.03
2019-04-28T05:41:20.114Z,71.04
2019-04-28T05:44:10.370Z,71.06
2019-04-28T05:47:00.396Z,71.00
2019-04-28T05:49:56.610Z,71.09
2019-04-28T05:53:05.631Z,71.13
2019-04-28T05:56:20.336Z,71.08
2019-04-28T05:59:15.212Z,71.04
2019-04-28T06:02:10.590Z,71.14
2019-04-28T06:05:00.708Z,71.26
2019-04-28T06:07:59.629Z,71.08
2019-04-28T06:10:49.880Z,71.09
2019-04-28T06:13:40.412Z,70.88
2019-04-28T06:16:30.636Z,70.91
2019-04-28T06:19:20.608Z,70.87
2019-04-28T06:22:10.556Z,70.66
2019-04-28T06:25:00.565Z,70.55
2019-04-28T06:27:50.384Z,69.99
2019-04-28T06:30:40.563Z,69.55
2019-04-28T06:33:30.607Z,69.61
2019-04-28T06:36:20.875Z,69.66
2019-04-28T06:39:11.665Z,69.41
2019-04-28T06:42:01.738Z,69.62
2019-04-28T06:44:51.381Z,69.55
2019-04-28T06:47:41.207Z,69.37
2019-04-28T06:50:31.040Z,69.34
2019-04-28T06:53:20.787Z,68.65
2019-04-28T06:56:11.303Z,68.72
2019-04-28T06:59:01.109Z,68.76
2019-04-28T07:01:51.030Z,68.66
2019-04-28T07:04:40.886Z,68.87
2019-04-28T07:07:30.827Z,68.77
2019-04-28T07:10:21.027Z,68.81
2019-04-28T07:13:10.703Z,68.93
2019-04-28T07:16:01.751Z,68.69
2019-04-28T07:18:51.534Z,68.85
2019-04-28T07:21:50.587Z,68.87
2019-04-28T07:24:40.914Z,68.42
2019-04-28T07:27:30.136Z,68.79
2019-04-28T07:30:20.111Z,68.72
2019-04-28T07:33:10.455Z,68.62
2019-04-28T07:36:00.271Z,68.73
2019-04-28T07:38:50.065Z,68.75
2019-04-28T07:41:40.294Z,68.95
2019-04-28T07:44:30.325Z,68.92
2019-04-28T07:47:20.480Z,68.79
2019-04-28T07:50:10.713Z,68.64
2019-04-28T07:53:07.291Z,68.37
2019-04-28T07:55:57.134Z,68.49
2019-04-28T07:58:47.339Z,68.56
2019-04-28T08:01:37.286Z,68.41
2019-04-28T08:04:27.432Z,68.50
2019-04-28T08:07:17.008Z,68.21
2019-04-28T08:10:07.472Z,67.86
2019-04-28T08:12:57.206Z,67.86
2019-04-28T08:15:46.785Z,68.11
2019-04-28T08:18:37.150Z,67.27
2019-04-28T08:21:26.782Z,67.57
2019-04-28T08:24:17.052Z,67.79
2019-04-28T08:27:07.109Z,67.89
2019-04-28T08:29:58.692Z,67.09
2019-04-28T08:32:56.385Z,66.95
2019-04-28T08:35:46.095Z,67.03
2019-04-28T08:38:35.792Z,66.67
2019-04-28T08:41:25.900Z,66.73
2019-04-28T08:44:15.543Z,67.08
2019-04-28T08:47:05.277Z,66.96
2019-04-28T08:49:55.065Z,66.40
2019-04-28T08:52:44.968Z,65.88
2019-04-28T08:55:34.899Z,65.89
2019-04-28T08:58:25.104Z,65.49
2019-04-28T09:01:15.056Z,66.10
2019-04-28T09:04:15.100Z,66.11
2019-04-28T09:06:56.251Z,65.67
2019-04-28T09:09:46.009Z,65.21
2019-04-28T09:12:35.750Z,65.72
2019-04-28T09:15:25.939Z,65.03
2019-04-28T09:18:15.886Z,64.74
2019-04-28T09:21:06.173Z,64.21
2019-04-28T09:23:55.844Z,63.61
2019-04-28T09:26:46.171Z,63.99
2019-04-28T09:29:36.413Z,63.61
2019-04-28T09:32:26.634Z,64.42
2019-04-28T09:35:16.698Z,64.48
2019-04-28T09:38:08.891Z,64.57
2019-04-28T09:40:59.565Z,64.73
2019-04-28T09:44:07.141Z,64.07
2019-04-28T09:46:57.241Z,64.60
2019-04-28T09:49:46.478Z,64.99
2019-04-28T09:52:36.196Z,65.00
2019-04-28T09:55:26.335Z,64.54
2019-04-28T09:58:16.184Z,64.05
2019-04-28T10:01:06.610Z,64.23
2019-04-28T10:03:56.846Z,64.33
2019-04-28T10:06:47.272Z,63.79
2019-04-28T10:09:36.903Z,62.85
2019-04-28T10:12:27.584Z,62.43
2019-04-28T10:15:17.706Z,62.17
2019-04-28T10:18:07.848Z,62.59
2019-04-28T10:20:57.523Z,60.75
2019-04-28T10:23:47.183Z,60.14
2019-04-28T10:26:36.955Z,58.04
2019-04-28T10:29:27.422Z,58.77
2019-04-28T10:32:17.348Z,58.96
2019-04-28T10:35:09.704Z,58.09
2019-04-28T10:37:59.687Z,56.37
2019-04-28T10:40:55.157Z,54.86
2019-04-28T10:43:44.581Z,55.26
2019-04-28T10:46:34.696Z,57.44
2019-04-28T10:49:25.221Z,57.16
2019-04-28T10:52:14.984Z,55.58
2019-04-28T10:55:06.213Z,53.79
2019-04-28T10:57:55.849Z,51.47
2019-04-28T11:00:45.411Z,50.32
2019-04-28T11:03:35.511Z,49.74
2019-04-28T11:06:25.717Z,49.76
2019-04-28T11:09:30.312Z,51.18
2019-04-28T11:12:21.957Z,51.64
2019-04-28T11:15:30.238Z,52.89
2019-04-28T11:18:20.514Z,51.55
2019-04-28T11:21:10.550Z,52.61
2019-04-28T11:24:00.909Z,52.47
2019-04-28T11:26:51.213Z,53.48
2019-04-28T11:29:42.555Z,52.83
2019-04-28T11:32:32.125Z,53.93
2019-04-28T11:35:27.321Z,54.75
2019-04-28T11:38:18.580Z,55.00
2019-04-28T11:41:11.518Z,55.58
2019-04-28T11:44:00.683Z,56.23
2019-04-28T11:46:50.945Z,57.10
2019-04-28T11:49:41.839Z,54.78
2019-04-28T11:52:31.194Z,55.17
2019-04-28T11:55:21.084Z,53.36
2019-04-28T11:58:11.267Z,53.96
2019-04-28T12:01:01.686Z,54.31
2019-04-28T12:03:54.688Z,54.22
2019-04-28T12:06:43.963Z,53.37
2019-04-28T12:09:41.519Z,52.42
2019-04-28T12:12:49.282Z,52.21
2019-04-28T12:16:10.257Z,52.50
2019-04-28T12:19:08.915Z,52.77
2019-04-28T12:21:58.826Z,51.99
2019-04-28T12:24:48.941Z,52.77
2019-04-28T12:27:38.867Z,52.78
2019-04-28T12:30:28.619Z,52.45
2019-04-28T12:33:18.800Z,51.20
2019-04-28T12:36:09.778Z,50.95
2019-04-28T12:38:59.655Z,49.96
2019-04-28T12:41:49.594Z,50.13
2019-04-28T12:44:38.812Z,50.10
2019-04-28T12:47:28.662Z,48.88
2019-04-28T12:50:37.571Z,49.40
2019-04-28T12:53:27.673Z,49.28
2019-04-28T12:56:17.502Z,49.39
2019-04-28T12:59:13.891Z,48.59
2019-04-28T13:02:09.828Z,48.17
2019-04-28T13:05:02.109Z,48.98
2019-04-28T13:07:53.539Z,47.48
2019-04-28T13:10:43.178Z,48.12
2019-04-28T13:13:32.984Z,46.97
2019-04-28T13:16:22.719Z,46.76
2019-04-28T13:19:12.552Z,46.50
2019-04-28T13:22:05.354Z,46.09
2019-04-28T13:24:54.242Z,46.63
2019-04-28T13:27:44.231Z,46.42
2019-04-28T13:30:33.857Z,46.47
2019-04-28T13:33:23.897Z,45.93
2019-04-28T13:36:15.056Z,45.74
2019-04-28T13:39:09.760Z,45.80
2019-04-28T13:41:59.519Z,45.47
2019-04-28T13:45:11.975Z,46.00
2019-04-28T13:48:01.778Z,45.62
2019-04-28T13:50:51.690Z,46.08
2019-04-28T13:53:41.603Z,45.49
2019-04-28T13:56:31.301Z,45.31
2019-04-28T13:59:21.334Z,45.16
2019-04-28T14:02:20.140Z,45.06
2019-04-28T14:05:29.180Z,44.35
2019-04-28T14:08:18.653Z,44.77
2019-04-28T14:11:08.532Z,44.55
2019-04-28T14:13:58.687Z,43.77
2019-04-28T14:16:48.514Z,44.00
2019-04-28T14:19:38.158Z,43.19
2019-04-28T14:22:28.081Z,43.49
2019-04-28T14:25:17.240Z,43.24
2019-04-28T14:28:07.458Z,43.29
2019-04-28T14:30:57.536Z,42.61
2019-04-28T14:33:47.271Z,42.20
2019-04-28T14:36:42.115Z,42.37
2019-04-28T14:39:28.930Z,41.46
2019-04-28T14:42:19.047Z,41.45
2019-04-28T14:45:09.502Z,40.81
2019-04-28T14:47:59.601Z,41.11
2019-04-28T14:50:50.824Z,41.38
2019-04-28T14:53:40.850Z,41.20
2019-04-28T14:56:49.946Z,41.26
2019-04-28T14:59:39.776Z,41.51
2019-04-28T15:02:51.737Z,41.39
2019-04-28T15:05:58.788Z,41.08
2019-04-28T15:09:10.805Z,41.65
2019-04-28T15:12:04.514Z,41.43
2019-04-28T15:14:54.289Z,41.64
2019-04-28T15:17:44.415Z,41.23
2019-04-28T15:20:34.654Z,41.52
2019-04-28T15:23:25.023Z,42.22
2019-04-28T15:26:14.779Z,42.23
2019-04-28T15:29:04.865Z,42.05
2019-04-28T15:31:55.283Z,42.15
2019-04-28T15:34:44.398Z,42.41
2019-04-28T15:37:34.896Z,42.33
2019-04-28T15:40:24.964Z,42.78
2019-04-28T15:43:14.262Z,42.78
2019-04-28T15:46:04.473Z,43.15
2019-04-28T15:48:54.501Z,43.13
2019-04-28T15:51:44.509Z,43.71
2019-04-28T15:54:36.131Z,43.47
2019-04-28T15:57:25.853Z,43.59
2019-04-28T16:00:16.269Z,43.75
2019-04-28T16:03:06.140Z,44.04
2019-04-28T16:05:56.235Z,43.85
2019-04-28T16:08:46.155Z,44.21
2019-04-28T16:11:36.022Z,44.14
2019-04-28T16:14:25.890Z,44.30
2019-04-28T16:17:15.968Z,44.13
2019-04-28T16:20:06.301Z,44.29
2019-04-28T16:22:55.979Z,44.15
2019-04-28T16:25:46.006Z,44.38
2019-04-28T16:28:36.014Z,44.12
2019-04-28T16:31:25.827Z,44.21
2019-04-28T16:34:15.700Z,44.39
2019-04-28T16:37:05.874Z,43.89
2019-04-28T16:39:55.872Z,43.72
2019-04-28T16:42:46.055Z,43.79
2019-04-28T16:45:36.465Z,43.89
2019-04-28T16:48:26.497Z,43.93
2019-04-28T16:51:16.615Z,44.32
2019-04-28T16:54:06.386Z,44.46
2019-04-28T16:57:20.998Z,44.53
2019-04-28T17:00:19.733Z,44.59
2019-04-28T17:03:09.776Z,44.74
2019-04-28T17:05:59.526Z,44.75
2019-04-28T17:08:49.494Z,44.91
2019-04-28T17:11:39.711Z,44.87
2019-04-28T17:14:30.638Z,45.20
2019-04-28T17:17:20.280Z,45.33
2019-04-28T17:20:10.584Z,45.45
2019-04-28T17:23:00.174Z,45.54
2019-04-28T17:25:50.463Z,45.64
2019-04-28T17:28:40.795Z,45.99
2019-04-28T17:31:30.889Z,45.90
2019-04-28T17:34:20.833Z,45.91
2019-04-28T17:37:11.487Z,46.18
2019-04-28T17:40:00.686Z,46.03
2019-04-28T17:42:52.362Z,46.26
2019-04-28T17:45:42.210Z,46.33
2019-04-28T17:48:35.569Z,46.45
2019-04-28T17:51:24.982Z,46.56
2019-04-28T17:54:14.453Z,46.59
2019-04-28T17:57:06.396Z,46.97
2019-04-28T17:59:58.275Z,47.15
2019-04-28T18:03:13.656Z,47.19
2019-04-28T18:06:18.160Z,47.19
2019-04-28T18:09:07.342Z,47.27
2019-04-28T18:11:58.537Z,47.50
2019-04-28T18:14:50.637Z,47.73
2019-04-28T18:18:08.632Z,47.84
2019-04-28T18:20:58.565Z,47.98
2019-04-28T18:23:48.271Z,48.22
2019-04-28T18:26:37.911Z,48.29
2019-04-28T18:29:27.879Z,48.44
2019-04-28T18:32:45.202Z,48.56
2019-04-28T18:35:54.015Z,48.69
2019-04-28T18:38:51.958Z,48.96
2019-04-28T18:41:48.233Z,49.12
2019-04-28T18:44:38.827Z,49.36
2019-04-28T18:47:28.908Z,49.49
2019-04-28T18:50:18.659Z,49.61
2019-04-28T18:53:08.764Z,49.73
2019-04-28T18:55:58.901Z,49.92
2019-04-28T18:58:48.683Z,50.03
2019-04-28T19:01:47.550Z,50.03
2019-04-28T19:04:40.475Z,50.11
2019-04-28T19:07:50.588Z,50.20
2019-04-28T19:10:48.064Z,50.28
2019-04-28T19:13:42.407Z,50.43
2019-04-28T19:16:51.924Z,50.58
2019-04-28T19:19:42.103Z,50.64
2019-04-28T19:22:34.598Z,50.76
2019-04-28T19:25:24.783Z,50.93
2019-04-28T19:28:14.633Z,51.06
2019-04-28T19:31:04.321Z,51.23
2019-04-28T19:33:54.665Z,51.31
2019-04-28T19:36:43.830Z,51.39
2019-04-28T19:39:33.949Z,51.56
2019-04-28T19:42:23.736Z,51.65
2019-04-28T19:45:15.353Z,51.76
2019-04-28T19:48:05.485Z,51.92
2019-04-28T19:50:55.409Z,52.09
2019-04-28T19:53:45.537Z,52.26
2019-04-28T19:56:54.227Z,52.45
2019-04-28T20:00:01.747Z,52.56
2019-04-28T20:02:53.355Z,52.68
2019-04-28T20:05:43.335Z,52.73
2019-04-28T20:08:33.554Z,53.01
2019-04-28T20:11:24.704Z,53.13
2019-04-28T20:14:14.956Z,53.25
2019-04-28T20:17:04.824Z,53.42
2019-04-28T20:19:54.543Z,53.53
2019-04-28T20:22:44.300Z,53.64
2019-04-28T20:25:34.319Z,53.79
2019-04-28T20:28:24.345Z,53.87
2019-04-28T20:31:14.668Z,53.98
2019-04-28T20:34:04.261Z,54.07
2019-04-28T20:37:02.951Z,54.16
2019-04-28T20:39:58.182Z,54.40
2019-04-28T20:42:58.223Z,54.63
2019-04-28T20:45:48.592Z,54.81
2019-04-28T20:48:37.995Z,54.84
2019-04-28T20:51:28.840Z,54.99
2019-04-28T20:54:19.006Z,55.03
2019-04-28T20:57:09.353Z,54.96
2019-04-28T20:59:59.267Z,54.98
2019-04-28T21:02:49.401Z,54.98
2019-04-28T21:05:39.137Z,55.09
2019-04-28T21:08:28.683Z,55.15
2019-04-28T21:11:19.401Z,55.15
2019-04-28T21:14:09.182Z,55.14
2019-04-28T21:16:58.625Z,55.19
2019-04-28T21:19:48.812Z,55.18
2019-04-28T21:22:38.984Z,55.15
2019-04-28T21:25:28.922Z,55.30
2019-04-28T21:28:19.020Z,55.33
2019-04-28T21:31:09.088Z,55.40
2019-04-28T21:33:59.689Z,55.40
2019-04-28T21:36:50.640Z,55.44
2019-04-28T21:39:40.397Z,55.54
2019-04-28T21:42:49.033Z,55.55
2019-04-28T21:46:01.444Z,55.64
2019-04-28T21:48:53.475Z,55.69
2019-04-28T21:51:43.271Z,55.83
2019-04-28T21:54:33.371Z,56.06
2019-04-28T21:57:23.918Z,56.13
2019-04-28T22:00:15.272Z,56.22
2019-04-28T22:03:23.665Z,56.32
2019-04-28T22:06:14.017Z,56.42
2019-04-28T22:09:05.710Z,56.51
2019-04-28T22:11:57.392Z,56.56
2019-04-28T22:14:47.340Z,56.59
2019-04-28T22:17:37.479Z,56.63
2019-04-28T22:20:27.051Z,56.63
2019-04-28T22:23:21.970Z,56.69
2019-04-28T22:26:30.933Z,56.79
2019-04-28T22:29:20.819Z,56.83
2019-04-28T22:32:11.170Z,56.92
2019-04-28T22:35:19.849Z,56.95
2019-04-28T22:38:09.716Z,56.99
2019-04-28T22:40:59.516Z,57.05
2019-04-28T22:43:49.455Z,57.10
2019-04-28T22:46:39.586Z,57.12
2019-04-28T22:49:29.668Z,57.18
2019-04-28T22:52:19.805Z,57.26
2019-04-28T22:55:18.286Z,57.34
2019-04-28T22:58:20.964Z,57.37
2019-04-28T23:01:21.486Z,57.46
2019-04-28T23:04:24.833Z,57.49
2019-04-28T23:07:15.240Z,57.56
2019-04-28T23:10:06.448Z,57.62
2019-04-28T23:12:56.850Z,57.71
2019-04-28T23:15:46.926Z,57.75
2019-04-28T23:18:37.504Z,57.79
2019-04-28T23:21:36.430Z,57.83
2019-04-28T23:24:26.196Z,57.89
2019-04-28T23:27:17.718Z,57.86
2019-04-28T23:30:09.502Z,57.94
2019-04-28T23:32:59.380Z,57.97
2019-04-28T23:35:49.172Z,57.99
2019-04-28T23:38:38.973Z,58.00
2019-04-28T23:41:54.023Z,57.93
2019-04-28T23:44:43.999Z,58.07
2019-04-28T23:47:33.936Z,58.14
2019-04-28T23:50:30.625Z,58.18
2019-04-28T23:53:39.422Z,58.33
2019-04-28T23:56:29.224Z,58.39
2019-04-28T23:59:19.094Z,58.48
